createdAt,value
2018-04-13T00:01:40.491Z,90.20
2018-04-13T00:03:41.928Z,90.77
2018-04-13T00:05:43.715Z,90.96
2018-04-13T00:07:45.371Z,90.87
2018-04-13T00:09:46.879Z,91.25
2018-04-13T00:11:48.599Z,90.72
2018-04-13T00:13:50.236Z,90.24
2018-04-13T00:15:52.388Z,89.19
2018-04-13T00:17:54.133Z,88.62
2018-04-13T00:19:55.589Z,88.81
2018-04-13T00:21:57.076Z,89.00
2018-04-13T00:23:59.218Z,89.81
2018-04-13T00:26:01.307Z,90.10
2018-04-13T00:28:02.882Z,90.44
2018-04-13T00:30:04.346Z,90.44
2018-04-13T00:32:05.827Z,90.15
2018-04-13T00:34:07.249Z,90.15
2018-04-13T00:36:08.671Z,89.86
2018-04-13T00:38:10.089Z,90.24
2018-04-13T00:40:11.507Z,89.48
2018-04-13T00:42:12.929Z,88.62
2018-04-13T00:44:14.829Z,88.13
2018-04-13T00:46:16.297Z,87.66
2018-04-13T00:48:17.720Z,88.13
2018-04-13T00:50:19.326Z,87.66
2018-04-13T00:52:20.739Z,87.62
2018-04-13T00:54:22.892Z,87.62
2018-04-13T00:56:24.512Z,87.43
2018-04-13T00:58:25.940Z,87.33
2018-04-13T01:00:27.839Z,88.48
2018-04-13T01:02:29.321Z,89.43
2018-04-13T01:04:30.739Z,90.92
2018-04-13T01:06:32.206Z,91.39
2018-04-13T01:08:33.630Z,91.16
2018-04-13T01:10:35.851Z,90.77
2018-04-13T01:12:37.346Z,90.39
2018-04-13T01:14:38.755Z,89.34
2018-04-13T01:16:40.172Z,88.76
2018-04-13T01:18:41.816Z,88.86
2018-04-13T01:20:43.272Z,88.29
2018-04-13T01:22:44.723Z,88.00
2018-04-13T01:24:47.028Z,88.09
2018-04-13T01:26:48.353Z,88.00
2018-04-13T01:28:50.050Z,87.62
2018-04-13T01:30:51.516Z,87.62
2018-04-13T01:32:52.930Z,88.29
2018-04-13T01:34:54.347Z,89.58
2018-04-13T01:36:55.764Z,90.25
2018-04-13T01:38:57.183Z,91.49
2018-04-13T01:40:58.598Z,92.30
2018-04-13T01:43:00.019Z,93.26
2018-04-13T01:45:01.437Z,94.41
2018-04-13T01:47:02.860Z,95.27
2018-04-13T01:49:04.276Z,95.36
2018-04-13T01:51:05.695Z,95.65
2018-04-13T01:53:07.120Z,96.46
2018-04-13T01:55:09.265Z,96.17
2018-04-13T01:57:11.272Z,96.08
2018-04-13T01:59:12.945Z,96.46
2018-04-13T02:01:14.550Z,96.37
2018-04-13T02:03:16.171Z,96.37
2018-04-13T02:05:18.435Z,95.94
2018-04-13T02:07:20.780Z,96.32
2018-04-13T02:09:22.160Z,94.98
2018-04-13T02:11:24.481Z,92.69
2018-04-13T02:13:25.964Z,92.07
2018-04-13T02:15:27.418Z,91.78
2018-04-13T02:17:28.838Z,90.25
2018-04-13T02:19:30.253Z,90.06
2018-04-13T02:21:31.673Z,89.20
2018-04-13T02:23:33.098Z,88.24
2018-04-13T02:25:35.052Z,88.05
2018-04-13T02:27:36.664Z,88.15
2018-04-13T02:29:38.087Z,87.76
2018-04-13T02:31:39.513Z,88.05
2018-04-13T02:33:40.969Z,87.48
2018-04-13T02:35:42.382Z,87.00
2018-04-13T02:37:44.260Z,87.76
2018-04-13T02:39:46.369Z,87.76
2018-04-13T02:41:48.004Z,87.86
2018-04-13T02:43:50.272Z,87.09
2018-04-13T02:45:51.938Z,87.09
2018-04-13T02:47:53.403Z,86.80
2018-04-13T02:49:54.828Z,87.86
2018-04-13T02:51:56.245Z,88.34
2018-04-13T02:53:57.653Z,88.91
2018-04-13T02:55:59.074Z,88.34
2018-04-13T02:58:00.498Z,88.05
2018-04-13T03:00:01.913Z,87.48
2018-04-13T03:02:04.146Z,87.57
2018-04-13T03:04:05.584Z,86.90
2018-04-13T03:06:07.021Z,86.23
2018-04-13T03:08:09.343Z,86.52
2018-04-13T03:10:10.814Z,86.33
2018-04-13T03:12:12.295Z,86.71
2018-04-13T03:14:13.714Z,86.04
2018-04-13T03:16:15.124Z,86.80
2018-04-13T03:18:16.547Z,86.52
2018-04-13T03:20:18.020Z,86.14
2018-04-13T03:22:20.409Z,85.38
2018-04-13T03:24:22.579Z,85.85
2018-04-13T03:26:24.095Z,86.14
2018-04-13T03:28:25.562Z,86.33
2018-04-13T03:30:27.672Z,86.57
2018-04-13T03:32:29.358Z,86.33
2018-04-13T03:34:31.008Z,86.80
2018-04-13T03:36:32.694Z,86.90
2018-04-13T03:38:34.470Z,86.71
2018-04-13T03:40:36.012Z,86.23
2018-04-13T03:42:37.500Z,86.14
2018-04-13T03:44:38.980Z,85.71
2018-04-13T03:46:40.480Z,85.75
2018-04-13T03:48:41.960Z,86.29
2018-04-13T03:50:43.410Z,87.53
2018-04-13T03:52:44.989Z,88.10
2018-04-13T03:54:47.191Z,86.90
2018-04-13T03:56:48.905Z,86.19
2018-04-13T03:58:51.042Z,86.00
2018-04-13T04:00:52.735Z,85.81
2018-04-13T04:02:54.385Z,85.33
2018-04-13T04:04:56.560Z,84.76
2018-04-13T04:06:58.176Z,84.56
2018-04-13T04:08:59.826Z,84.37
2018-04-13T04:11:01.421Z,84.85
2018-04-13T04:13:03.392Z,85.33
2018-04-13T04:15:04.988Z,85.81
2018-04-13T04:17:06.560Z,84.66
2018-04-13T04:19:08.659Z,85.14
2018-04-13T04:21:10.341Z,86.00
2018-04-13T04:23:12.084Z,85.24
2018-04-13T04:25:13.688Z,84.95
2018-04-13T04:27:15.835Z,85.05
2018-04-13T04:29:17.501Z,85.14
2018-04-13T04:31:19.028Z,85.42
2018-04-13T04:33:20.523Z,85.71
2018-04-13T04:35:21.956Z,85.29
2018-04-13T04:37:23.397Z,85.14
2018-04-13T04:39:25.344Z,85.58
2018-04-13T04:41:26.939Z,85.96
2018-04-13T04:43:28.407Z,85.81
2018-04-13T04:45:30.544Z,85.96
2018-04-13T04:47:32.639Z,86.10
2018-04-13T04:49:34.094Z,85.90
2018-04-13T04:51:35.507Z,85.81
2018-04-13T04:53:36.923Z,85.90
2018-04-13T04:55:38.344Z,86.10
2018-04-13T04:57:39.868Z,85.86
2018-04-13T04:59:41.863Z,85.86
2018-04-13T05:01:44.129Z,85.81
2018-04-13T05:03:45.625Z,85.86
2018-04-13T05:05:47.911Z,85.52
2018-04-13T05:07:50.117Z,85.90
2018-04-13T05:09:52.382Z,87.58
2018-04-13T05:11:54.066Z,88.44
2018-04-13T05:13:55.535Z,87.20
2018-04-13T05:15:57.778Z,87.48
2018-04-13T05:17:59.463Z,87.58
2018-04-13T05:20:01.012Z,87.48
2018-04-13T05:22:02.490Z,87.68
2018-04-13T05:24:03.958Z,87.43
2018-04-13T05:26:05.408Z,87.43
2018-04-13T05:28:07.371Z,88.29
2018-04-13T05:30:09.071Z,88.29
2018-04-13T05:32:10.717Z,87.53
2018-04-13T05:34:12.135Z,87.53
2018-04-13T05:36:13.781Z,87.53
2018-04-13T05:38:15.220Z,87.05
2018-04-13T05:40:16.667Z,86.96
2018-04-13T05:42:18.139Z,87.34
2018-04-13T05:44:19.635Z,88.10
2018-04-13T05:46:21.162Z,89.06
2018-04-13T05:48:22.611Z,88.68
2018-04-13T05:50:24.052Z,88.43
2018-04-13T05:52:25.688Z,88.05
2018-04-13T05:54:27.332Z,88.62
2018-04-13T05:56:29.054Z,90.25
2018-04-13T05:58:30.711Z,90.78
2018-04-13T06:00:32.209Z,92.30
2018-04-13T06:02:33.740Z,92.45
2018-04-13T06:04:35.201Z,92.25
2018-04-13T06:06:36.716Z,91.49
2018-04-13T06:08:38.183Z,92.50
2018-04-13T06:10:39.650Z,93.74
2018-04-13T06:12:41.119Z,93.65
2018-04-13T06:14:42.590Z,93.07
2018-04-13T06:16:44.002Z,92.93
2018-04-13T06:18:45.464Z,92.45
2018-04-13T06:20:46.948Z,91.78
2018-04-13T06:22:48.390Z,90.44
2018-04-13T06:24:49.813Z,90.01
2018-04-13T06:26:51.242Z,90.16
2018-04-13T06:28:52.661Z,90.06
2018-04-13T06:30:54.080Z,91.20
2018-04-13T06:32:55.506Z,91.97
2018-04-13T06:34:56.926Z,93.55
2018-04-13T06:36:58.353Z,94.89
2018-04-13T06:38:59.773Z,94.79
2018-04-13T06:41:01.199Z,94.98
2018-04-13T06:43:02.624Z,94.65
2018-04-13T06:45:04.045Z,94.36
2018-04-13T06:47:05.466Z,95.79
2018-04-13T06:49:06.896Z,95.84
2018-04-13T06:51:08.315Z,96.70
2018-04-13T06:53:09.743Z,97.37
2018-04-13T06:55:11.170Z,97.94
2018-04-13T06:57:12.604Z,98.33
2018-04-13T06:59:14.026Z,98.52
2018-04-13T07:01:15.479Z,98.80
2018-04-13T07:03:16.900Z,99.14
2018-04-13T07:05:18.319Z,98.18
2018-04-13T07:07:19.741Z,98.18
2018-04-13T07:09:21.185Z,96.84
2018-04-13T07:11:22.582Z,97.33
2018-04-13T07:13:24.011Z,97.71
2018-04-13T07:15:25.432Z,97.71
2018-04-13T07:17:26.862Z,97.99
2018-04-13T07:19:28.287Z,97.28
2018-04-13T07:21:29.714Z,95.84
2018-04-13T07:23:31.140Z,94.89
2018-04-13T07:25:32.572Z,95.17
2018-04-13T07:27:33.981Z,94.79
2018-04-13T07:29:35.417Z,95.17
2018-04-13T07:31:36.867Z,93.98
2018-04-13T07:33:38.634Z,91.97
2018-04-13T07:35:39.713Z,92.06
2018-04-13T07:37:41.155Z,92.06
2018-04-13T07:39:42.574Z,91.34
2018-04-13T07:41:44.000Z,89.04
2018-04-13T07:43:45.612Z,87.65
2018-04-13T07:45:46.853Z,87.41
2018-04-13T07:47:48.282Z,84.48
2018-04-13T07:49:49.723Z,80.58
2018-04-13T07:51:51.147Z,80.49
2018-04-13T07:53:52.579Z,80.30
2018-04-13T07:55:54.013Z,79.44
2018-04-13T07:57:55.436Z,76.84
2018-04-13T07:59:56.867Z,76.62
2018-04-13T08:01:58.294Z,77.00
2018-04-13T08:03:59.775Z,77.04
2018-04-13T08:06:01.197Z,77.33
2018-04-13T08:08:02.626Z,77.08
2018-04-13T08:10:04.289Z,74.64
2018-04-13T08:12:05.486Z,74.93
2018-04-13T08:14:06.914Z,74.64
2018-04-13T08:16:08.345Z,74.96
2018-04-13T08:18:09.768Z,75.25
2018-04-13T08:20:11.198Z,74.77
2018-04-13T08:22:12.624Z,73.39
2018-04-13T08:24:14.050Z,74.64
2018-04-13T08:26:15.489Z,75.60
2018-04-13T08:28:16.929Z,74.73
2018-04-13T08:30:18.379Z,73.58
2018-04-13T08:32:19.785Z,74.93
2018-04-13T08:34:21.212Z,74.93
2018-04-13T08:36:22.638Z,74.64
2018-04-13T08:38:24.061Z,74.44
2018-04-13T08:40:25.489Z,74.77
2018-04-13T08:42:26.919Z,75.06
2018-04-13T08:44:28.375Z,74.39
2018-04-13T08:46:30.082Z,72.66
2018-04-13T08:48:31.574Z,73.33
2018-04-13T08:50:33.002Z,73.72
2018-04-13T08:52:34.460Z,73.24
2018-04-13T08:54:35.859Z,71.70
2018-04-13T08:56:37.288Z,71.70
2018-04-13T08:58:38.726Z,71.55
2018-04-13T09:00:40.146Z,71.06
2018-04-13T09:02:41.629Z,68.91
2018-04-13T09:04:43.038Z,70.78
2018-04-13T09:06:44.483Z,71.25
2018-04-13T09:08:45.905Z,70.49
2018-04-13T09:10:47.341Z,67.32
2018-04-13T09:12:48.768Z,68.57
2018-04-13T09:14:50.196Z,67.61
2018-04-13T09:16:51.620Z,67.99
2018-04-13T09:18:53.053Z,66.84
2018-04-13T09:20:54.488Z,65.69
2018-04-13T09:22:55.986Z,65.69
2018-04-13T09:24:57.508Z,64.63
2018-04-13T09:26:58.917Z,62.04
2018-04-13T09:29:00.348Z,63.19
2018-04-13T09:31:01.775Z,62.71
2018-04-13T09:33:03.202Z,64.28
2018-04-13T09:35:04.645Z,63.22
2018-04-13T09:37:06.096Z,61.84
2018-04-13T09:39:07.517Z,63.38
2018-04-13T09:41:09.093Z,63.09
2018-04-13T09:43:10.520Z,64.15
2018-04-13T09:45:11.956Z,63.76
2018-04-13T09:47:13.424Z,63.60
2018-04-13T09:49:14.968Z,59.28
2018-04-13T09:51:16.404Z,60.02
2018-04-13T09:53:17.849Z,62.16
2018-04-13T09:55:19.405Z,62.55
2018-04-13T09:57:20.963Z,63.83
2018-04-13T09:59:22.445Z,61.74
2018-04-13T10:01:24.078Z,57.90
2018-04-13T10:03:25.599Z,57.99
2018-04-13T10:05:27.074Z,58.76
2018-04-13T10:07:28.561Z,57.64
2018-04-13T10:09:30.047Z,55.59
2018-04-13T10:11:31.498Z,55.46
2018-04-13T10:13:32.917Z,57.39
2018-04-13T10:15:34.358Z,56.59
2018-04-13T10:17:35.786Z,57.17
2018-04-13T10:19:37.216Z,58.13
2018-04-13T10:21:38.653Z,59.38
2018-04-13T10:23:40.070Z,60.05
2018-04-13T10:25:41.511Z,61.14
2018-04-13T10:27:42.948Z,60.85
2018-04-13T10:29:44.374Z,59.53
2018-04-13T10:31:45.814Z,57.42
2018-04-13T10:33:47.262Z,57.45
2018-04-13T10:35:48.689Z,56.67
2018-04-13T10:38:36.989Z,56.48
2018-04-13T10:40:39.613Z,54.46
2018-04-13T10:42:42.582Z,53.40
2018-04-13T10:44:45.040Z,55.43
2018-04-13T10:46:47.214Z,55.30
2018-04-13T10:49:36.545Z,57.32
2018-04-13T10:51:38.532Z,56.81
2018-04-13T10:53:40.558Z,58.13
2018-04-13T10:55:42.688Z,59.66
2018-04-13T10:57:44.492Z,58.64
2018-04-13T11:00:33.864Z,58.92
2018-04-13T11:02:36.472Z,60.14
2018-04-13T11:04:38.275Z,59.86
2018-04-13T11:06:40.347Z,60.82
2018-04-13T11:09:25.084Z,59.25
2018-04-13T11:11:27.544Z,60.21
2018-04-13T11:13:30.321Z,62.04
2018-04-13T11:15:33.029Z,61.27
2018-04-13T11:17:34.973Z,59.73
2018-04-13T11:19:36.754Z,60.28
2018-04-13T11:21:39.496Z,61.43
2018-04-13T11:23:41.173Z,60.69
2018-04-13T11:25:43.675Z,60.78
2018-04-13T11:28:28.489Z,60.11
2018-04-13T11:30:34.029Z,62.71
2018-04-13T11:32:36.022Z,60.60
2018-04-13T11:34:38.569Z,61.94
2018-04-13T11:36:41.370Z,60.69
2018-04-13T11:38:43.877Z,60.11
2018-04-13T11:40:45.628Z,60.08
2018-04-13T11:42:48.380Z,59.61
2018-04-13T11:44:50.055Z,60.98
2018-04-13T11:46:52.746Z,61.27
2018-04-13T11:49:36.602Z,61.27
2018-04-13T11:51:39.344Z,60.88
2018-04-13T11:53:41.335Z,60.38
2018-04-13T11:55:43.328Z,62.96
2018-04-13T11:57:45.515Z,62.29
2018-04-13T11:59:47.329Z,62.87
2018-04-13T12:01:49.138Z,62.52
2018-04-13T12:03:51.141Z,61.91
2018-04-13T12:06:37.299Z,63.16
2018-04-13T12:09:27.407Z,63.83
2018-04-13T12:11:29.061Z,65.08
2018-04-13T12:13:31.798Z,64.53
2018-04-13T12:15:34.509Z,63.83
2018-04-13T12:17:37.227Z,63.25
2018-04-13T12:19:40.042Z,63.35
2018-04-13T12:21:42.079Z,63.99
2018-04-13T12:23:44.850Z,64.56
2018-04-13T12:25:47.377Z,65.33
2018-04-13T12:27:50.059Z,65.43
2018-04-13T12:29:52.127Z,66.10
2018-04-13T12:31:54.055Z,66.39
2018-04-13T12:33:55.891Z,66.39
2018-04-13T12:35:58.680Z,66.19
2018-04-13T12:38:00.895Z,66.77
2018-04-13T12:40:02.669Z,66.39
2018-04-13T12:42:05.133Z,66.16
2018-04-13T12:44:07.305Z,66.93
2018-04-13T12:46:09.382Z,68.46
2018-04-13T12:48:11.217Z,67.32
2018-04-13T12:50:13.077Z,66.64
2018-04-13T12:52:15.444Z,67.22
2018-04-13T12:54:18.047Z,66.74
2018-04-13T12:56:20.760Z,67.12
2018-04-13T12:58:22.634Z,67.22
2018-04-13T13:00:25.223Z,67.41
2018-04-13T13:02:27.981Z,67.12
2018-04-13T13:05:16.243Z,67.32
2018-04-13T13:07:59.762Z,67.60
2018-04-13T13:10:04.708Z,67.99
2018-04-13T13:12:07.274Z,68.75
2018-04-13T13:14:09.282Z,68.75
2018-04-13T13:16:11.310Z,68.95
2018-04-13T13:18:13.913Z,69.20
2018-04-13T13:20:15.897Z,69.48
2018-04-13T13:22:18.805Z,70.06
2018-04-13T13:24:21.429Z,70.54
2018-04-13T13:27:05.148Z,70.38
2018-04-13T13:29:10.261Z,70.38
2018-04-13T13:31:12.195Z,69.90
2018-04-13T13:33:14.995Z,69.52
2018-04-13T13:35:17.336Z,68.85
2018-04-13T13:38:07.278Z,69.04
2018-04-13T13:40:09.608Z,68.18
2018-04-13T13:42:58.273Z,68.12
2018-04-13T13:45:00.399Z,67.25
2018-04-13T13:47:02.101Z,67.54
2018-04-13T13:49:04.788Z,67.92
2018-04-13T13:51:06.852Z,67.54
2018-04-13T13:54:34.608Z,68.30
2018-04-13T13:56:35.980Z,68.59
2018-04-13T13:58:38.616Z,68.12
2018-04-13T14:00:40.653Z,68.50
2018-04-13T14:02:42.705Z,68.37
2018-04-13T14:06:09.462Z,67.50
2018-04-13T14:08:11.339Z,68.30
2018-04-13T14:10:13.262Z,68.18
2018-04-13T14:12:16.095Z,68.85
2018-04-13T14:14:18.368Z,67.99
2018-04-13T14:16:20.713Z,67.50
2018-04-13T14:19:21.320Z,67.89
2018-04-13T14:22:11.428Z,68.56
2018-04-13T14:25:07.733Z,67.60
2018-04-13T14:27:57.296Z,68.56
2018-04-13T14:30:51.826Z,68.95
2018-04-13T14:33:40.343Z,69.71
2018-04-13T14:36:28.193Z,69.52
2018-04-13T19:05:15.541Z,81.10
2018-04-13T19:08:10.335Z,81.10
2018-04-13T19:11:06.090Z,80.90
2018-04-13T19:13:54.556Z,80.90
2018-04-13T19:16:45.917Z,80.33
2018-04-13T19:19:29.836Z,80.24
2018-04-13T19:22:43.108Z,80.14
2018-04-13T19:25:29.123Z,79.57
2018-04-13T19:28:41.204Z,80.24
2018-04-13T19:31:35.137Z,79.75
2018-04-13T19:34:22.612Z,79.28
2018-04-13T19:37:11.860Z,79.18
2018-04-13T19:39:58.900Z,79.75
2018-04-13T19:44:45.814Z,79.75
2018-04-13T19:47:33.934Z,79.18
2018-04-13T19:50:18.402Z,79.66
2018-04-13T19:53:03.973Z,80.24
2018-04-13T19:55:50.700Z,80.24
2018-04-13T19:58:36.562Z,80.24
2018-04-13T20:00:38.851Z,80.33
2018-04-13T20:03:23.125Z,79.66
2018-04-13T20:06:07.369Z,79.95
2018-04-13T20:08:53.471Z,80.24
2018-04-13T20:10:55.716Z,79.75
2018-04-13T20:13:42.650Z,79.75
2018-04-13T20:15:44.641Z,79.57
2018-04-13T20:17:46.725Z,79.47
2018-04-13T20:20:30.833Z,80.00
2018-04-13T20:23:17.725Z,80.67
2018-04-13T20:26:04.839Z,80.00
2018-04-13T20:28:51.068Z,79.91
2018-04-13T20:30:54.276Z,79.81
2018-04-13T20:33:40.595Z,80.19
2018-04-13T20:36:27.265Z,79.81
2018-04-13T20:39:11.445Z,80.10
2018-04-13T20:41:55.558Z,79.81
2018-04-13T20:44:41.738Z,79.05
2018-04-13T20:46:43.889Z,78.66
2018-04-13T20:48:45.839Z,78.95
2018-04-13T20:52:11.899Z,79.29
2018-04-13T20:54:57.109Z,80.73
2018-04-13T20:57:45.313Z,81.78
2018-04-13T21:00:29.549Z,81.59
2018-04-13T21:03:15.696Z,80.73
2018-04-13T21:06:01.868Z,81.02
2018-04-13T21:08:48.067Z,80.35
2018-04-13T21:10:50.391Z,79.43
2018-04-13T21:13:35.151Z,79.43
2018-04-13T21:16:19.475Z,78.86
2018-04-13T21:19:06.602Z,78.66
2018-04-13T21:21:52.179Z,78.76
2018-04-13T21:24:39.194Z,78.05
2018-04-13T21:27:25.467Z,79.77
2018-04-13T21:30:11.773Z,81.07
2018-04-13T21:32:59.059Z,82.03
2018-04-13T21:35:45.202Z,83.37
2018-04-13T21:38:32.296Z,83.23
2018-04-13T21:41:17.957Z,83.23
2018-04-13T21:44:03.737Z,82.98
2018-04-13T21:46:50.048Z,82.79
2018-04-13T21:49:36.313Z,82.31
2018-04-13T21:52:22.913Z,81.65
2018-04-13T21:55:07.120Z,81.55
2018-04-13T21:57:51.397Z,81.55
2018-04-13T22:00:37.716Z,80.92
2018-04-13T22:04:02.841Z,80.69
2018-04-13T22:06:48.626Z,81.65
2018-04-13T22:09:33.098Z,81.89
2018-04-13T22:12:17.468Z,82.84
2018-04-13T22:15:03.741Z,84.47
2018-04-13T22:17:05.917Z,85.19
2018-04-13T22:19:08.075Z,85.19
2018-04-13T22:21:54.476Z,85.48
2018-04-13T22:24:41.604Z,85.67
2018-04-13T22:26:43.564Z,85.96
2018-04-13T22:29:29.958Z,85.77
2018-04-13T22:32:16.264Z,85.19
2018-04-13T22:35:02.490Z,85.05
2018-04-13T22:37:04.716Z,84.47
2018-04-13T22:39:50.629Z,84.85
2018-04-13T22:42:36.884Z,84.76
2018-04-13T22:45:23.148Z,84.56
2018-04-13T22:48:09.590Z,85.58
2018-04-13T22:50:55.982Z,85.58
2018-04-13T22:53:40.313Z,85.96
2018-04-13T22:56:24.651Z,85.96
2018-04-13T22:59:11.040Z,86.34
2018-04-13T23:01:58.090Z,86.63
2018-04-13T23:04:44.205Z,87.35
2018-04-13T23:07:30.463Z,87.54
2018-04-13T23:09:32.729Z,87.25
2018-04-13T23:12:18.178Z,87.25
2018-04-13T23:15:02.633Z,87.82
2018-04-13T23:17:48.847Z,87.54
2018-04-13T23:20:35.328Z,87.54
2018-04-13T23:23:21.755Z,88.01
2018-04-13T23:26:06.135Z,88.01
2018-04-13T23:28:52.605Z,87.92
2018-04-13T23:31:38.943Z,87.44
2018-04-13T23:34:26.371Z,87.58
2018-04-13T23:37:12.369Z,86.82
2018-04-13T23:39:58.582Z,85.96
2018-04-13T23:42:42.836Z,86.43
2018-04-13T23:45:27.270Z,86.87
2018-04-13T23:48:13.396Z,87.44
2018-04-13T23:50:58.563Z,87.54
2018-04-13T23:53:45.476Z,87.54
2018-04-13T23:56:30.644Z,87.25
2018-04-13T23:59:17.438Z,87.92
